ZA-0042 weather

Adamsfontein Airport
Colesberg, Northern Cape, South Africa

Public forecast

Using degrees Celsius for public forecast. Weather courtesy of forecast.io.

METAR (pilot weather report)

Report is more than 6 hours old.

Closest report is De Aar Military Airport, 69.3 nm (128.4 km) W. Retrieved 2019/08/25 06:20 UTC (8 hours ago):

FADY 250620Z 06001KT CAVOK 14/M07 Q1025

TAF (pilot weather forecast)

Forecast is more than 6 hours old.

Closest forecast is Bram Fischer International Airport, 104.6 nm (193.7 km) NNE. Retrieved 2019/08/25 06:03 UTC (9 hours ago):

TAF TAF FABL 250400Z 2506/2606 VRB03KT CAVOK TX27/2513Z TN03/2604Z